Time;durP1;ratioP1;P1;durP2;ratioP2;P2;SDS_P1;SDS_P2;PMS_P1;PMS_P2;Temp;Humidity;BMP_temperature;BMP_pressure;BME280_temperature;BME280_humidity;BME280_pressure;Samples;Min_cycle;Max_cycle;Signal;HPM_P1;HPM_P2
2021/01/12 00:01:57;;;;;;;20.57;10.00;;;;;;;;;;5091352;28;20408;-63
2021/01/12 00:04:22;;;;;;;26.60;11.07;;;;;;;;;;5090671;28;20020;-62
2021/01/12 00:06:50;;;;;;;15.00;8.73;;;;;;;;;;5091345;28;20033;-62
2021/01/12 00:09:16;;;;;;;17.52;9.35;;;;;;;;;;5090540;28;20043;-62
2021/01/12 00:11:41;;;;;;;16.43;9.70;;;;;;;;;;5091201;28;20510;-62
2021/01/12 00:14:30;;;;;;;17.07;9.20;;;;;;;;;;5090892;28;20383;-62
2021/01/12 00:16:52;;;;;;;17.58;9.60;;;;;;;;;;5094063;28;20460;-62
2021/01/12 00:19:17;;;;;;;21.47;9.53;;;;;;;;;;5094142;28;20051;-62
2021/01/12 00:21:42;;;;;;;20.03;10.13;;;;;;;;;;5095226;28;20412;-63
2021/01/12 00:24:08;;;;;;;20.47;10.17;;;;;;;;;;5094870;28;20074;-63
2021/01/12 00:26:34;;;;;;;20.70;9.48;;;;;;;;;;5076537;28;20524;-63
2021/01/12 00:28:59;;;;;;;11.70;6.77;;;;;;;;;;5095047;28;20059;-63
2021/01/12 00:31:24;;;;;;;18.30;9.10;;;;;;;;;;5094265;28;20111;-63
2021/01/12 00:33:50;;;;;;;22.73;9.70;;;;;;;;;;5076526;28;20083;-63
2021/01/12 00:36:15;;;;;;;17.30;9.47;;;;;;;;;;5075940;28;20371;-62
2021/01/12 00:38:40;;;;;;;16.00;8.73;;;;;;;;;;5074234;28;20028;-63
2021/01/12 00:41:06;;;;;;;19.57;8.80;;;;;;;;;;5086149;28;20028;-62
2021/01/12 00:43:32;;;;;;;21.80;7.32;;;;;;;;;;5073789;28;20029;-62
2021/01/12 00:45:57;;;;;;;10.45;5.20;;;;;;;;;;5074359;28;20476;-63
2021/01/12 00:48:22;;;;;;;15.67;8.30;;;;;;;;;;5073631;28;20071;-63
2021/01/12 00:50:48;;;;;;;15.77;7.00;;;;;;;;;;5074273;28;20025;-64
2021/01/12 00:53:13;;;;;;;18.23;7.20;;;;;;;;;;5073344;28;20028;-63
2021/01/12 00:55:38;;;;;;;11.50;6.37;;;;;;;;;;5074213;28;20028;-64
2021/01/12 00:58:05;;;;;;;13.97;6.80;;;;;;;;;;5074159;28;20020;-63
2021/01/12 01:00:30;;;;;;;15.35;7.13;;;;;;;;;;5073128;28;20095;-64
2021/01/12 01:02:55;;;;;;;15.53;6.33;;;;;;;;;;5074087;28;20036;-64
2021/01/12 01:05:21;;;;;;;18.23;6.47;;;;;;;;;;5073090;28;20066;-64
2021/01/12 01:07:47;;;;;;;11.70;5.33;;;;;;;;;;5073795;28;20037;-66
2021/01/12 01:10:13;;;;;;;11.50;6.28;;;;;;;;;;5073557;28;20417;-60
2021/01/12 01:12:38;;;;;;;13.75;6.00;;;;;;;;;;5055700;28;20046;-64
2021/01/12 01:15:04;;;;;;;11.10;6.30;;;;;;;;;;5089439;28;20482;-63
2021/01/12 01:17:29;;;;;;;14.45;4.82;;;;;;;;;;5055246;28;20033;-63
2021/01/12 01:19:54;;;;;;;9.77;5.03;;;;;;;;;;5073182;28;20066;-64
2021/01/12 01:22:23;;;;;;;12.97;6.57;;;;;;;;;;5073102;28;20032;-63
2021/01/12 01:24:48;;;;;;;12.82;6.22;;;;;;;;;;5073796;28;20033;-64
2021/01/12 01:27:14;;;;;;;10.17;5.23;;;;;;;;;;5087347;28;20029;-60
2021/01/12 01:29:39;;;;;;;10.00;5.27;;;;;;;;;;5055511;28;20060;-63
2021/01/12 01:32:05;;;;;;;10.53;6.23;;;;;;;;;;5073219;28;20081;-64
2021/01/12 01:34:30;;;;;;;13.70;6.43;;;;;;;;;;5072859;28;20089;-64
2021/01/12 01:37:00;;;;;;;14.60;5.80;;;;;;;;;;5073280;28;20388;-64
2021/01/12 01:39:26;;;;;;;13.38;5.45;;;;;;;;;;5072833;28;20041;-64
2021/01/12 01:41:51;;;;;;;11.33;5.90;;;;;;;;;;5074241;28;20033;-63
2021/01/12 01:44:16;;;;;;;12.33;6.20;;;;;;;;;;5072279;28;20468;-61
2021/01/12 01:46:42;;;;;;;12.13;6.53;;;;;;;;;;5054939;28;20040;-63
2021/01/12 01:49:08;;;;;;;16.15;6.88;;;;;;;;;;5073128;28;20029;-64
2021/01/12 01:51:33;;;;;;;10.50;6.28;;;;;;;;;;5072616;28;20544;-63
2021/01/12 01:53:59;;;;;;;17.03;7.53;;;;;;;;;;5072724;28;20029;-64
2021/01/12 01:56:27;;;;;;;19.57;8.47;;;;;;;;;;5072392;28;20036;-63
2021/01/12 01:58:52;;;;;;;17.13;8.05;;;;;;;;;;5072455;28;20040;-63
2021/01/12 02:01:18;;;;;;;17.27;8.60;;;;;;;;;;5072498;28;20021;-61
2021/01/12 02:03:55;;;;;;;16.73;9.05;;;;;;;;;;5072869;28;20029;-63
2021/01/12 02:06:26;;;;;;;20.92;8.93;;;;;;;;;;5072142;28;20056;-62
2021/01/12 02:08:55;;;;;;;22.02;8.43;;;;;;;;;;5072612;28;20115;-63
2021/01/12 02:11:23;;;;;;;16.10;7.57;;;;;;;;;;5071938;28;20117;-63
2021/01/12 02:13:52;;;;;;;20.25;8.63;;;;;;;;;;5072486;28;20032;-63
2021/01/12 02:16:18;;;;;;;14.77;7.47;;;;;;;;;;5072136;28;20414;-63
2021/01/12 02:18:45;;;;;;;17.17;8.73;;;;;;;;;;5072393;28;20495;-63
2021/01/12 02:21:10;;;;;;;32.03;9.45;;;;;;;;;;5071859;28;20044;-63
2021/01/12 02:24:02;;;;;;;24.73;9.57;;;;;;;;;;5070310;28;20075;-63
2021/01/12 02:26:27;;;;;;;18.48;8.45;;;;;;;;;;5050300;28;20036;-63
2021/01/12 02:28:53;;;;;;;16.40;8.67;;;;;;;;;;5071859;28;20031;-64
2021/01/12 02:31:18;;;;;;;22.57;8.87;;;;;;;;;;5072151;28;20032;-63
2021/01/12 02:33:45;;;;;;;25.83;9.30;;;;;;;;;;5086785;28;20032;-63
2021/01/12 02:36:12;;;;;;;27.58;9.85;;;;;;;;;;5071968;28;20361;-65
2021/01/12 02:38:37;;;;;;;49.28;10.18;;;;;;;;;;5070903;28;20062;-63
2021/01/12 02:41:07;;;;;;;24.17;9.50;;;;;;;;;;5072290;28;20392;-64
2021/01/12 02:43:32;;;;;;;24.27;9.52;;;;;;;;;;5069875;28;20120;-63
2021/01/12 02:45:58;;;;;;;21.57;10.67;;;;;;;;;;5071844;28;20104;-63
2021/01/12 02:48:23;;;;;;;25.97;8.90;;;;;;;;;;5070911;28;20035;-61
2021/01/12 02:50:48;;;;;;;20.40;7.97;;;;;;;;;;5071711;28;20056;-63
2021/01/12 02:53:13;;;;;;;14.03;8.63;;;;;;;;;;5071684;28;20052;-64
2021/01/12 02:55:39;;;;;;;29.90;8.60;;;;;;;;;;5086581;28;20040;-63
2021/01/12 02:58:04;;;;;;;15.30;8.60;;;;;;;;;;5071630;28;20044;-63
2021/01/12 03:00:29;;;;;;;29.20;8.83;;;;;;;;;;5070976;28;20322;-63
2021/01/12 03:02:55;;;;;;;1.10;0.63;;;;;;;;;;5071234;28;20499;-64
2021/01/12 03:05:20;;;;;;;21.50;7.87;;;;;;;;;;5071293;28;20085;-63
2021/01/12 03:07:45;;;;;;;23.47;7.90;;;;;;;;;;5070894;28;20105;-63
2021/01/12 03:10:11;;;;;;;24.53;7.40;;;;;;;;;;5071254;28;20068;-63
2021/01/12 03:12:36;;;;;;;23.17;8.93;;;;;;;;;;5070549;28;20028;-63
2021/01/12 03:15:01;;;;;;;30.47;8.27;;;;;;;;;;5071143;28;20024;-62
2021/01/12 03:17:27;;;;;;;26.67;7.40;;;;;;;;;;5070689;28;20056;-63
2021/01/12 03:19:52;;;;;;;34.27;7.77;;;;;;;;;;5070931;28;20488;-64
2021/01/12 03:22:17;;;;;;;28.27;8.63;;;;;;;;;;5086616;28;20062;-63
2021/01/12 03:24:43;;;;;;;32.93;7.80;;;;;;;;;;5070444;28;20424;-63
2021/01/12 03:27:08;;;;;;;28.97;7.20;;;;;;;;;;5071450;28;20437;-64
2021/01/12 03:29:33;;;;;;;36.70;8.90;;;;;;;;;;5070384;28;20087;-63
2021/01/12 03:31:59;;;;;;;22.90;7.27;;;;;;;;;;5071194;28;20036;-63
2021/01/12 03:34:25;;;;;;;19.02;5.70;;;;;;;;;;5052918;28;20029;-63
2021/01/12 03:36:50;;;;;;;9.98;5.43;;;;;;;;;;5071547;28;20028;-63
2021/01/12 03:39:16;;;;;;;13.67;2.27;;;;;;;;;;5070965;28;20480;-64
2021/01/12 03:41:41;;;;;;;19.43;5.53;;;;;;;;;;5086180;28;20028;-63
2021/01/12 03:44:07;;;;;;;17.47;5.30;;;;;;;;;;5071048;28;20032;-63
2021/01/12 03:46:32;;;;;;;25.67;8.90;;;;;;;;;;5070491;28;20054;-63
2021/01/12 03:48:58;;;;;;;15.20;5.77;;;;;;;;;;5071318;28;20465;-62
2021/01/12 03:51:24;;;;;;;13.40;5.50;;;;;;;;;;5055734;28;20393;-63
2021/01/12 03:53:49;;;;;;;20.60;5.88;;;;;;;;;;5073184;28;20123;-63
2021/01/12 03:56:14;;;;;;;25.80;6.53;;;;;;;;;;5075189;28;20127;-63
2021/01/12 03:58:40;;;;;;;17.33;5.37;;;;;;;;;;5074402;28;20380;-62
2021/01/12 04:01:05;;;;;;;22.17;5.17;;;;;;;;;;5075224;28;20032;-66
2021/01/12 04:03:31;;;;;;;27.67;6.73;;;;;;;;;;5074342;28;20293;-63
2021/01/12 04:05:59;;;;;;;18.67;5.43;;;;;;;;;;5075341;28;20415;-63
2021/01/12 04:08:25;;;;;;;30.58;6.97;;;;;;;;;;5074936;28;20062;-62
2021/01/12 04:10:50;;;;;;;11.50;4.30;;;;;;;;;;5074174;28;20024;-63
2021/01/12 04:13:15;;;;;;;30.97;6.17;;;;;;;;;;5074674;28;20020;-63
2021/01/12 04:15:41;;;;;;;20.83;5.13;;;;;;;;;;5074264;28;20115;-63
2021/01/12 04:18:06;;;;;;;19.47;5.53;;;;;;;;;;5074896;28;20059;-63
2021/01/12 04:20:31;;;;;;;37.20;8.10;;;;;;;;;;5089079;28;20060;-63
2021/01/12 04:22:57;;;;;;;26.38;5.03;;;;;;;;;;5074995;28;20408;-63
2021/01/12 04:25:23;;;;;;;10.27;4.83;;;;;;;;;;5074466;28;20032;-64
2021/01/12 04:27:48;;;;;;;26.90;7.27;;;;;;;;;;5074154;28;20078;-64
2021/01/12 04:30:14;;;;;;;28.40;6.37;;;;;;;;;;5074733;28;20427;-65
2021/01/12 04:32:39;;;;;;;25.73;7.27;;;;;;;;;;5089528;28;20018;-64
2021/01/12 04:35:05;;;;;;;22.23;5.00;;;;;;;;;;5074669;28;20036;-64
2021/01/12 04:37:31;;;;;;;34.20;6.03;;;;;;;;;;5074502;28;20029;-64
2021/01/12 04:39:56;;;;;;;12.45;4.47;;;;;;;;;;5074334;28;20120;-64
2021/01/12 04:42:21;;;;;;;21.13;5.73;;;;;;;;;;5074368;28;20492;-64
2021/01/12 04:44:47;;;;;;;29.23;5.87;;;;;;;;;;5073596;28;20400;-63
2021/01/12 04:47:12;;;;;;;18.37;4.70;;;;;;;;;;5074123;28;20475;-63
2021/01/12 04:49:37;;;;;;;23.27;5.10;;;;;;;;;;5073222;28;20487;-64
2021/01/12 04:52:03;;;;;;;24.93;5.93;;;;;;;;;;5074098;28;20036;-64
2021/01/12 04:54:32;;;;;;;19.57;6.03;;;;;;;;;;5073911;28;20468;-63
2021/01/12 04:56:58;;;;;;;24.60;5.88;;;;;;;;;;5074143;28;20101;-63
2021/01/12 04:59:23;;;;;;;30.07;5.70;;;;;;;;;;5074004;28;20029;-64
2021/01/12 05:01:49;;;;;;;16.73;4.60;;;;;;;;;;5073402;28;20078;-63
2021/01/12 05:04:15;;;;;;;23.37;6.23;;;;;;;;;;5073757;28;20297;-64
2021/01/12 05:06:40;;;;;;;58.10;9.48;;;;;;;;;;5073310;28;20029;-63
2021/01/12 05:09:05;;;;;;;0.90;0.87;;;;;;;;;;5073563;28;20030;-63
2021/01/12 05:11:31;;;;;;;27.10;7.33;;;;;;;;;;5073949;28;20103;-64
2021/01/12 05:14:00;;;;;;;36.50;7.75;;;;;;;;;;5073161;28;20044;-64
2021/01/12 05:16:26;;;;;;;77.57;14.85;;;;;;;;;;5073392;28;20065;-64
2021/01/12 05:18:52;;;;;;;65.90;12.77;;;;;;;;;;5060342;28;20123;-65
2021/01/12 05:21:18;;;;;;;73.38;14.02;;;;;;;;;;5055396;28;20045;-64
2021/01/12 05:24:08;;;;;;;44.30;9.45;;;;;;;;;;5104605;28;20413;-64
2021/01/12 05:26:34;;;;;;;46.47;9.13;;;;;;;;;;5093830;28;20028;-64
2021/01/12 05:29:00;;;;;;;68.25;15.85;;;;;;;;;;5088871;28;20066;-64
2021/01/12 05:31:26;;;;;;;68.45;15.43;;;;;;;;;;5073294;28;20042;-64
2021/01/12 05:33:52;;;;;;;65.75;11.88;;;;;;;;;;5091709;28;20569;-64
2021/01/12 05:36:19;;;;;;;64.00;14.45;;;;;;;;;;5093135;28;20529;-64
2021/01/12 05:38:45;;;;;;;39.42;10.25;;;;;;;;;;5092301;28;20031;-64
2021/01/12 05:41:10;;;;;;;67.28;15.40;;;;;;;;;;5092746;28;20020;-63
2021/01/12 05:43:40;;;;;;;73.10;17.17;;;;;;;;;;5092702;28;20024;-65
2021/01/12 05:46:07;;;;;;;37.05;8.88;;;;;;;;;;5090391;28;20031;-63
2021/01/12 05:48:34;;;;;;;49.55;11.52;;;;;;;;;;5092919;28;20031;-63
2021/01/12 05:51:02;;;;;;;47.10;11.18;;;;;;;;;;5091920;28;20074;-63
2021/01/12 05:53:31;;;;;;;49.17;11.77;;;;;;;;;;5090295;28;20039;-65
2021/01/12 05:56:00;;;;;;;44.10;7.82;;;;;;;;;;5091382;28;20028;-63
2021/01/12 05:58:29;;;;;;;58.85;10.07;;;;;;;;;;5091469;28;20104;-63
2021/01/12 06:00:55;;;;;;;40.33;8.13;;;;;;;;;;5091191;28;20044;-63
2021/01/12 06:03:24;;;;;;;24.02;5.80;;;;;;;;;;5090796;28;20028;-63
2021/01/12 06:05:49;;;;;;;21.98;4.28;;;;;;;;;;5091762;28;20023;-63
2021/01/12 06:08:15;;;;;;;12.13;4.13;;;;;;;;;;5092347;28;20122;-63
2021/01/12 06:10:42;;;;;;;15.60;5.40;;;;;;;;;;5073707;28;20024;-63
2021/01/12 06:13:12;;;;;;;14.70;4.50;;;;;;;;;;5073552;28;20037;-63
2021/01/12 06:15:39;;;;;;;13.90;5.13;;;;;;;;;;5092388;28;20445;-63
2021/01/12 06:18:05;;;;;;;13.70;5.15;;;;;;;;;;5074087;28;20036;-63
2021/01/12 06:20:43;;;;;;;10.83;4.37;;;;;;;;;;5092383;28;20074;-63
2021/01/12 06:23:11;;;;;;;15.15;3.90;;;;;;;;;;5092686;28;20152;-63
2021/01/12 06:25:36;;;;;;;20.20;4.18;;;;;;;;;;5092164;28;20043;-63
2021/01/12 06:28:02;;;;;;;13.53;5.60;;;;;;;;;;5091366;28;20029;-63
2021/01/12 06:30:28;;;;;;;9.53;4.67;;;;;;;;;;5091895;28;20071;-63
2021/01/12 06:32:53;;;;;;;16.02;4.85;;;;;;;;;;5091459;28;20024;-64
2021/01/12 06:35:19;;;;;;;16.67;4.10;;;;;;;;;;5073436;28;20214;-62
2021/01/12 06:37:49;;;;;;;13.57;3.83;;;;;;;;;;5091425;28;20032;-62
2021/01/12 06:40:17;;;;;;;6.72;3.38;;;;;;;;;;5091815;28;20082;-62
2021/01/12 06:42:43;;;;;;;15.70;3.33;;;;;;;;;;5090907;28;20054;-61
2021/01/12 06:45:08;;;;;;;11.67;2.43;;;;;;;;;;5091705;28;20034;-62
2021/01/12 06:47:34;;;;;;;11.30;2.83;;;;;;;;;;5091844;28;20015;-62
2021/01/12 06:50:02;;;;;;;12.75;2.67;;;;;;;;;;5091394;28;20032;-62
2021/01/12 06:52:28;;;;;;;9.13;2.30;;;;;;;;;;5091778;28;20032;-62
2021/01/12 06:54:53;;;;;;;11.13;2.33;;;;;;;;;;5091259;28;20368;-62
2021/01/12 06:57:22;;;;;;;6.40;2.70;;;;;;;;;;5091261;28;20378;-62
2021/01/12 06:59:47;;;;;;;10.82;2.47;;;;;;;;;;5091032;28;20439;-61
2021/01/12 07:02:29;;;;;;;6.87;1.70;;;;;;;;;;5091048;28;20024;-62
2021/01/12 07:04:54;;;;;;;11.30;2.13;;;;;;;;;;5070721;28;20031;-62
2021/01/12 07:07:21;;;;;;;15.93;2.30;;;;;;;;;;5091324;28;20024;-62
2021/01/12 07:09:46;;;;;;;7.93;1.85;;;;;;;;;;5072621;28;20035;-62
2021/01/12 07:12:18;;;;;;;8.93;1.73;;;;;;;;;;5073352;28;20345;-62
2021/01/12 07:14:47;;;;;;;11.35;2.42;;;;;;;;;;5091617;28;20134;-62
2021/01/12 07:17:12;;;;;;;13.23;2.05;;;;;;;;;;5090153;28;20032;-61
2021/01/12 07:19:38;;;;;;;9.93;2.03;;;;;;;;;;5089563;28;20032;-62
2021/01/12 07:22:16;;;;;;;13.63;2.17;;;;;;;;;;5090054;28;20334;-63
2021/01/12 07:24:43;;;;;;;11.90;1.95;;;;;;;;;;5091011;28;20032;-62
2021/01/12 07:27:11;;;;;;;10.13;1.67;;;;;;;;;;5090333;28;20425;-62
2021/01/12 07:29:46;;;;;;;7.63;2.20;;;;;;;;;;5091713;28;20065;-62
2021/01/12 07:32:12;;;;;;;8.55;2.00;;;;;;;;;;5086725;28;20024;-62
2021/01/12 07:34:37;;;;;;;8.47;1.83;;;;;;;;;;5079419;28;20184;-62
2021/01/12 07:37:03;;;;;;;8.63;3.20;;;;;;;;;;5070622;28;20089;-62
2021/01/12 07:39:30;;;;;;;7.15;1.90;;;;;;;;;;5073363;28;20042;-61
2021/01/12 07:41:55;;;;;;;;;;;;;;;;;;5079783;28;20056;-62
2021/01/12 07:44:21;;;;;;;6.63;2.37;;;;;;;;;;5071061;28;20010;-62
2021/01/12 07:46:47;;;;;;;2.67;1.40;;;;;;;;;;5086997;28;20024;-62
2021/01/12 07:49:12;;;;;;;6.60;2.03;;;;;;;;;;5089210;28;20045;-62
2021/01/12 07:51:37;;;;;;;8.00;1.90;;;;;;;;;;5090760;28;20016;-61
2021/01/12 07:54:03;;;;;;;10.80;2.57;;;;;;;;;;5089990;28;20016;-61
2021/01/12 07:56:28;;;;;;;10.97;2.50;;;;;;;;;;5090760;28;20035;-62
2021/01/12 07:58:54;;;;;;;8.25;2.65;;;;;;;;;;5089849;28;20024;-62
2021/01/12 08:01:25;;;;;;;15.07;2.83;;;;;;;;;;5090607;28;20043;-63
2021/01/12 08:03:51;;;;;;;6.95;2.67;;;;;;;;;;5076398;28;20846;-62
2021/01/12 08:06:16;;;;;;;11.57;2.40;;;;;;;;;;5110192;28;20111;-63
2021/01/12 08:08:42;;;;;;;12.97;2.47;;;;;;;;;;5072428;28;20355;-63
2021/01/12 08:11:07;;;;;;;10.10;2.50;;;;;;;;;;5090076;28;20021;-64
2021/01/12 08:13:32;;;;;;;5.93;2.20;;;;;;;;;;5091413;28;20043;-63
2021/01/12 08:15:58;;;;;;;17.17;3.07;;;;;;;;;;5072258;28;20468;-63
2021/01/12 08:18:23;;;;;;;6.33;2.30;;;;;;;;;;5081266;28;20358;-64
2021/01/12 08:20:55;;;;;;;16.53;2.60;;;;;;;;;;5070498;28;20049;-62
2021/01/12 08:23:21;;;;;;;10.07;2.10;;;;;;;;;;5085534;28;20052;-64
2021/01/12 08:25:46;;;;;;;16.52;2.40;;;;;;;;;;5064830;28;20099;-64
2021/01/12 08:28:12;;;;;;;8.23;2.95;;;;;;;;;;5069828;28;20495;-63
2021/01/12 08:30:38;;;;;;;6.53;2.50;;;;;;;;;;5079501;28;20031;-63
2021/01/12 08:33:13;;;;;;;15.60;2.55;;;;;;;;;;5088676;28;20028;-63
2021/01/12 08:35:46;;;;;;;11.32;3.00;;;;;;;;;;5090769;28;20055;-63
2021/01/12 08:38:13;;;;;;;10.88;3.40;;;;;;;;;;5093447;28;20078;-63
2021/01/12 08:40:39;;;;;;;12.07;2.78;;;;;;;;;;5094289;28;20511;-63
2021/01/12 08:43:10;;;;;;;9.48;3.10;;;;;;;;;;5075666;28;20028;-61
2021/01/12 08:45:36;;;;;;;7.88;3.35;;;;;;;;;;5076320;28;20028;-61
2021/01/12 08:48:11;;;;;;;13.93;3.57;;;;;;;;;;5093353;28;20036;-63
2021/01/12 08:50:36;;;;;;;8.40;3.42;;;;;;;;;;5076024;28;20028;-62
2021/01/12 08:53:02;;;;;;;12.00;2.67;;;;;;;;;;5093584;28;20097;-62
2021/01/12 08:55:27;;;;;;;11.53;3.60;;;;;;;;;;5075745;28;20031;-62
2021/01/12 08:57:57;;;;;;;14.43;4.47;;;;;;;;;;5093380;28;20024;-61
2021/01/12 09:00:27;;;;;;;11.07;3.78;;;;;;;;;;5093822;28;20042;-63
2021/01/12 09:02:55;;;;;;;12.90;3.28;;;;;;;;;;5091514;28;20055;-58
2021/01/12 09:05:21;;;;;;;9.23;4.07;;;;;;;;;;5091221;28;20051;-61
2021/01/12 09:07:46;;;;;;;13.03;3.77;;;;;;;;;;5093626;28;20393;-62
2021/01/12 09:10:12;;;;;;;8.48;3.58;;;;;;;;;;5057363;28;20029;-61
2021/01/12 09:12:38;;;;;;;14.23;3.17;;;;;;;;;;5088916;28;20024;-62
2021/01/12 09:15:04;;;;;;;8.48;2.78;;;;;;;;;;5071410;28;20031;-62
2021/01/12 09:17:29;;;;;;;5.65;2.80;;;;;;;;;;5058299;28;20433;-61
2021/01/12 09:19:55;;;;;;;10.90;3.13;;;;;;;;;;5056327;28;20206;-61
2021/01/12 09:22:21;;;;;;;12.37;3.33;;;;;;;;;;5073429;28;20025;-62
2021/01/12 09:24:46;;;;;;;10.25;2.83;;;;;;;;;;5073553;28;20028;-63
2021/01/12 09:27:15;;;;;;;8.80;2.83;;;;;;;;;;5072737;28;20032;-62
2021/01/12 09:29:40;;;;;;;9.13;3.30;;;;;;;;;;5073273;28;20063;-62
2021/01/12 09:32:06;;;;;;;14.87;3.50;;;;;;;;;;5072691;28;20060;-63
2021/01/12 09:34:32;;;;;;;11.60;2.60;;;;;;;;;;5072897;28;20063;-63
2021/01/12 09:36:57;;;;;;;12.97;3.50;;;;;;;;;;5072285;28;20273;-62
2021/01/12 09:39:25;;;;;;;8.53;2.83;;;;;;;;;;5073319;28;20464;-62
2021/01/12 09:41:52;;;;;;;5.82;2.10;;;;;;;;;;5087034;28;20480;-62
2021/01/12 09:44:17;;;;;;;8.20;2.47;;;;;;;;;;5091363;28;20027;-62
2021/01/12 09:46:43;;;;;;;6.00;2.30;;;;;;;;;;5079954;28;20025;-63
2021/01/12 09:49:08;;;;;;;5.13;1.47;;;;;;;;;;5052659;28;20480;-63
2021/01/12 09:51:33;;;;;;;8.33;1.83;;;;;;;;;;5072650;28;20558;-63
2021/01/12 09:53:59;;;;;;;15.20;1.97;;;;;;;;;;5072300;28;20028;-62
2021/01/12 09:56:24;;;;;;;10.10;2.20;;;;;;;;;;5054950;28;20417;-63
2021/01/12 09:58:50;;;;;;;10.93;2.17;;;;;;;;;;5072154;28;20393;-62
2021/01/12 10:01:17;;;;;;;11.95;1.50;;;;;;;;;;5072732;28;20139;-61
2021/01/12 10:03:42;;;;;;;8.27;1.63;;;;;;;;;;5072149;28;20500;-62
2021/01/12 10:06:14;;;;;;;8.03;1.60;;;;;;;;;;5071880;28;20163;-62
2021/01/12 10:08:39;;;;;;;9.37;1.50;;;;;;;;;;5072717;28;20040;-63
2021/01/12 10:11:05;;;;;;;5.27;1.50;;;;;;;;;;5080308;28;20264;-62
2021/01/12 10:13:30;;;;;;;5.73;1.37;;;;;;;;;;5092424;28;20099;-63
2021/01/12 10:15:55;;;;;;;3.27;1.07;;;;;;;;;;5092471;28;20016;-62
2021/01/12 10:18:20;;;;;;;4.33;1.50;;;;;;;;;;5088475;28;20163;-62
2021/01/12 10:20:46;;;;;;;7.70;1.93;;;;;;;;;;5069873;28;20473;-62
2021/01/12 10:23:11;;;;;;;10.80;1.63;;;;;;;;;;5055230;28;20033;-62
2021/01/12 10:25:37;;;;;;;8.40;1.80;;;;;;;;;;5092341;28;20410;-63
2021/01/12 10:28:05;;;;;;;11.47;2.10;;;;;;;;;;5091709;28;20024;-63
2021/01/12 10:30:31;;;;;;;12.35;2.58;;;;;;;;;;5092098;28;20077;-63
2021/01/12 10:32:57;;;;;;;7.22;1.77;;;;;;;;;;5073151;28;20424;-62
2021/01/12 10:35:22;;;;;;;13.55;3.00;;;;;;;;;;5091786;28;20392;-62
2021/01/12 10:37:48;;;;;;;7.73;1.67;;;;;;;;;;5092036;28;20032;-63
2021/01/12 10:40:13;;;;;;;5.67;1.60;;;;;;;;;;5091502;28;20024;-62
2021/01/12 10:42:42;;;;;;;11.77;1.40;;;;;;;;;;5089548;28;20479;-63
2021/01/12 10:45:08;;;;;;;12.95;2.35;;;;;;;;;;5106929;28;20112;-62
2021/01/12 10:47:35;;;;;;;8.20;2.53;;;;;;;;;;5091556;28;20028;-61
2021/01/12 10:50:00;;;;;;;6.43;1.75;;;;;;;;;;5078627;28;20032;-62
2021/01/12 10:52:26;;;;;;;4.33;0.80;;;;;;;;;;5071616;28;20107;-63
2021/01/12 10:54:51;;;;;;;5.87;1.07;;;;;;;;;;5071384;28;20276;-62
2021/01/12 10:57:16;;;;;;;10.30;2.47;;;;;;;;;;5070862;28;20056;-63
2021/01/12 10:59:42;;;;;;;6.87;1.53;;;;;;;;;;5071052;28;20082;-63
2021/01/12 11:02:08;;;;;;;10.23;1.30;;;;;;;;;;5086123;28;20028;-62
2021/01/12 11:04:33;;;;;;;9.02;1.10;;;;;;;;;;5090775;28;20090;-60
2021/01/12 11:06:59;;;;;;;5.03;1.13;;;;;;;;;;5109921;28;20459;-58
2021/01/12 11:09:26;;;;;;;13.13;2.55;;;;;;;;;;5093250;28;20039;-63
2021/01/12 11:11:57;;;;;;;6.88;1.52;;;;;;;;;;5111281;28;20046;-62
2021/01/12 11:14:22;;;;;;;8.43;1.20;;;;;;;;;;5110854;28;20024;-63
2021/01/12 11:16:48;;;;;;;2.50;1.00;;;;;;;;;;5101012;28;20529;-63
2021/01/12 11:19:15;;;;;;;6.50;1.13;;;;;;;;;;5090009;28;20032;-63
2021/01/12 11:21:41;;;;;;;5.90;1.00;;;;;;;;;;5071562;28;20063;-63
2021/01/12 11:24:08;;;;;;;2.40;0.85;;;;;;;;;;5087185;28;20291;-62
2021/01/12 11:26:33;;;;;;;3.58;1.20;;;;;;;;;;5055639;28;20097;-61
2021/01/12 11:28:59;;;;;;;5.07;1.42;;;;;;;;;;5090670;28;20069;-61
2021/01/12 11:31:26;;;;;;;3.63;0.90;;;;;;;;;;5089352;28;20352;-61
2021/01/12 11:33:52;;;;;;;6.93;1.20;;;;;;;;;;5072187;28;20015;-62
2021/01/12 11:36:18;;;;;;;6.15;1.35;;;;;;;;;;5090446;28;20261;-63
2021/01/12 11:38:43;;;;;;;4.38;1.48;;;;;;;;;;5090410;28;20063;-63
2021/01/12 11:41:09;;;;;;;9.63;2.70;;;;;;;;;;5071322;28;20028;-62
2021/01/12 11:43:35;;;;;;;8.75;1.63;;;;;;;;;;5071172;28;20016;-63
2021/01/12 11:46:00;;;;;;;11.87;1.90;;;;;;;;;;5090360;28;20035;-60
2021/01/12 11:48:26;;;;;;;8.40;2.57;;;;;;;;;;5089298;28;20646;-62
2021/01/12 11:50:51;;;;;;;7.30;1.60;;;;;;;;;;5072204;28;20087;-61
2021/01/12 11:53:16;;;;;;;8.07;1.43;;;;;;;;;;5089507;28;20032;-61
2021/01/12 11:55:42;;;;;;;8.33;1.93;;;;;;;;;;5090136;28;20062;-62
2021/01/12 11:58:07;;;;;;;9.10;1.90;;;;;;;;;;5089769;28;20024;-63
2021/01/12 12:00:32;;;;;;;12.67;2.40;;;;;;;;;;5090047;28;20032;-64
2021/01/12 12:02:58;;;;;;;8.33;1.70;;;;;;;;;;5088874;28;20032;-63
2021/01/12 12:05:23;;;;;;;13.20;2.47;;;;;;;;;;5089403;28;20035;-62
2021/01/12 12:07:48;;;;;;;6.27;1.57;;;;;;;;;;5086656;28;20370;-63
2021/01/12 12:10:14;;;;;;;9.07;1.70;;;;;;;;;;5068313;28;20447;-63
2021/01/12 12:12:39;;;;;;;6.63;1.60;;;;;;;;;;5073215;28;20029;-64
2021/01/12 12:15:05;;;;;;;5.53;1.80;;;;;;;;;;5073636;28;20558;-63
2021/01/12 12:17:30;;;;;;;8.23;1.80;;;;;;;;;;5074031;28;20790;-64
2021/01/12 12:19:57;;;;;;;4.07;1.40;;;;;;;;;;5089177;28;20472;-62
2021/01/12 12:22:22;;;;;;;14.32;2.20;;;;;;;;;;5093329;28;20089;-62
2021/01/12 12:24:47;;;;;;;5.60;1.60;;;;;;;;;;5075703;28;20028;-59
2021/01/12 12:27:18;;;;;;;10.37;2.27;;;;;;;;;;5093133;28;20256;-62
2021/01/12 12:29:43;;;;;;;6.53;1.83;;;;;;;;;;5091117;28;20024;-61
2021/01/12 12:32:08;;;;;;;8.70;1.40;;;;;;;;;;5075697;28;20810;-60
2021/01/12 12:34:34;;;;;;;6.67;1.30;;;;;;;;;;5093658;28;20103;-63
2021/01/12 12:36:59;;;;;;;12.90;1.80;;;;;;;;;;5093654;28;20110;-62
2021/01/12 12:39:24;;;;;;;8.93;1.33;;;;;;;;;;5093685;28;20097;-62
2021/01/12 12:41:50;;;;;;;16.97;2.47;;;;;;;;;;5078621;28;20028;-62
2021/01/12 12:44:15;;;;;;;13.27;1.50;;;;;;;;;;5093663;28;20020;-63
2021/01/12 12:46:41;;;;;;;8.53;1.30;;;;;;;;;;5094027;28;20357;-62
2021/01/12 12:49:06;;;;;;;8.73;2.47;;;;;;;;;;5093281;28;20388;-60
2021/01/12 12:51:32;;;;;;;7.23;2.37;;;;;;;;;;5085156;28;20031;-63
2021/01/12 12:53:58;;;;;;;7.53;1.67;;;;;;;;;;5073575;28;20028;-63
2021/01/12 12:56:24;;;;;;;4.20;1.33;;;;;;;;;;5073217;28;20025;-62
2021/01/12 12:58:50;;;;;;;7.85;2.05;;;;;;;;;;5073482;28;20037;-60
2021/01/12 13:01:15;;;;;;;7.15;1.20;;;;;;;;;;5072630;28;20052;-63
2021/01/12 13:03:41;;;;;;;9.80;1.27;;;;;;;;;;5058594;28;20020;-61
2021/01/12 13:06:06;;;;;;;9.23;1.25;;;;;;;;;;5092541;28;20048;-59
2021/01/12 13:08:33;;;;;;;9.18;1.40;;;;;;;;;;5093395;28;20032;-62
2021/01/12 13:10:59;;;;;;;7.40;1.23;;;;;;;;;;5093482;28;20034;-62
2021/01/12 13:13:24;;;;;;;;;;;;;;;;;;5093502;28;20444;-63
2021/01/12 13:15:50;;;;;;;11.23;1.70;;;;;;;;;;5093146;28;20000;-60
2021/01/12 13:18:19;;;;;;;9.65;1.15;;;;;;;;;;5074696;28;20034;-62
2021/01/12 13:20:45;;;;;;;8.53;1.87;;;;;;;;;;5093002;28;20127;-64
2021/01/12 13:23:11;;;;;;;6.35;1.20;;;;;;;;;;5089726;28;20066;-61
2021/01/12 13:25:36;;;;;;;8.82;1.40;;;;;;;;;;5093615;28;20417;-63
2021/01/12 13:28:03;;;;;;;5.25;1.30;;;;;;;;;;5093873;28;20020;-62
2021/01/12 13:30:28;;;;;;;7.33;1.70;;;;;;;;;;5092656;28;20036;-62
2021/01/12 13:32:54;;;;;;;5.13;1.60;;;;;;;;;;5092476;28;20024;-63
2021/01/12 13:35:22;;;;;;;9.13;2.08;;;;;;;;;;5092480;28;20032;-63
2021/01/12 13:37:47;;;;;;;7.33;1.30;;;;;;;;;;5093337;28;20024;-62
2021/01/12 13:40:14;;;;;;;9.32;1.10;;;;;;;;;;5090261;28;20081;-61
2021/01/12 13:42:46;;;;;;;8.68;1.58;;;;;;;;;;5071020;28;20101;-62
2021/01/12 13:45:15;;;;;;;11.00;1.30;;;;;;;;;;5081259;28;20294;-62
2021/01/12 13:47:40;;;;;;;7.07;1.60;;;;;;;;;;5063347;28;20031;-62
2021/01/12 13:50:06;;;;;;;9.63;2.65;;;;;;;;;;5072611;28;20423;-61
2021/01/12 13:52:33;;;;;;;8.98;1.70;;;;;;;;;;5054767;28;20081;-63
2021/01/12 13:54:58;;;;;;;7.50;1.20;;;;;;;;;;5054189;28;20028;-62
2021/01/12 13:57:30;;;;;;;4.15;1.15;;;;;;;;;;5072206;28;20039;-61
2021/01/12 13:59:57;;;;;;;7.83;2.13;;;;;;;;;;5072490;28;20048;-62
2021/01/12 14:02:22;;;;;;;;;;;;;;;;;;5072100;28;20056;-63
2021/01/12 14:04:47;;;;;;;6.47;1.30;;;;;;;;;;5072592;28;20340;-60
2021/01/12 14:07:13;;;;;;;6.73;1.90;;;;;;;;;;5053575;28;20031;-62
2021/01/12 14:09:38;;;;;;;7.53;1.90;;;;;;;;;;5072198;28;20764;-62
2021/01/12 14:12:04;;;;;;;7.30;1.97;;;;;;;;;;5072596;28;20725;-63
2021/01/12 14:14:30;;;;;;;4.53;1.10;;;;;;;;;;5074043;28;20036;-63
2021/01/12 14:16:58;;;;;;;5.28;1.40;;;;;;;;;;5092097;28;20468;-61
2021/01/12 14:19:26;;;;;;;5.97;1.30;;;;;;;;;;5091306;28;20036;-62
2021/01/12 14:21:53;;;;;;;3.73;1.00;;;;;;;;;;5092519;28;20067;-62
2021/01/12 14:24:18;;;;;;;5.77;1.20;;;;;;;;;;5091429;28;20405;-62
2021/01/12 14:26:46;;;;;;;9.25;1.38;;;;;;;;;;5092036;28;20062;-61
2021/01/12 14:29:12;;;;;;;4.57;1.37;;;;;;;;;;5080058;28;20038;-60
2021/01/12 14:31:37;;;;;;;6.63;1.73;;;;;;;;;;5091441;28;20471;-62